РПИ Тюмень

РПИ Тюмень

РПИ Тюмень является структурным подразделением дивизиона VATRUS сети VATSIM.

РПИ осуществляет свою деятельность в границах Тюменской области, Ханты-Мансийского и Ямало-Ненецкого автономных округов. Воздушное пространство Тюменского региона, составляющее 1 млн 346 тысяч квадратных километров, простираясь от границы с Казахстаном до Карского моря, является своеобразной границей между Европейской и Азиатской частями России.

Протяженность участков воздушных трасс, проходящих над регионом, насчитывает 48 523 километра, из которых 35 989 километров – это международные воздушные трассы. В зоне ответственности РПИ Тюмень проходит весь транзитный поток воздушных судов по транссибирским и трансполярным маршрутам.

В границах района расположены 19 аэродромов, из них 4 – международных. Более половины этих аэропортов обеспечивают транспортную доступность к нефтяным месторождениям нефти и газа России, являясь стратегическими объектами энергетических компаний.

Средства связи ОВД / ATC Units:

RU-WSC_FSS - Урал-Радар (USSV, USTV FIRs) - 134.500

USTV_CTR - Тюмень-Контроль - РЦ Тюмень - 132.600

USTV_1_CTR - Тюмень-Контроль - Сектор 1 - 132.600

USTV_2_CTR - Тюмень-Контроль - Сектор 2 - 133.600

USTV_3_CTR - Тюмень-Контроль - Сектор 3 (Ханты Юг) - 129.400

USTV_4_CTR - Тюмень-Контроль - Сектор 4 (Сургут-Запад) - 133.300

USTV_5_CTR - Тюмень-Контроль - Сектор 5 (Ханты-Мансийск)- 135.600

USTV_6_CTR - Тюмень-Контроль - Сектор 6 (Сургут) - 132.200

USTV_7_CTR - Тюмень-Контроль - Сектор 7 (Тарко-Сале)  - 133.100

USTV_8_CTR - Тюмень-Контроль - Сектор 8 (Салехард) - 132.300

USTV_9_CTR - Тюмень-Контроль - Сектор 9 (М.Каменный) - 132.900

Ссылки на публичные ресурсы:

ВКонтакте, Discord

Лого Тюмень
Руководство

Dmitriy Bannov

Начальник РегЦ ЕС ОрВД (Тюмень)

Igor Shitov

Заместитель начальника РегЦ ЕС ОрВД (Тюмень)

Andrey Usyaev

Event-менеджер
Инструкторы РПИ
Anton Agaev (Instructor)
Dmitriy Bannov (Instructor)
Igor Shitov * (Controller)
Kirill Ardatov * (Senior Student)
Kirill Rudavin (Instructor)
Maxim Gerasimov (Instructor)
Victor Rudnov (Instructor)
Входит в состав
Центральная Россия

Диспетчеры РПИ

Диспетчер Рейтинг Допуски *
Aleksandr Sokolov Instructor USTV_CTR
Alexander Pervov Senior Student USTV_CTR  *, USRR_APP(USRR+USNN+USRK+USRO) , USTR_R_APP
Andrew Zolotuhin Controller USTV_CTR
Anton Agaev Instructor USTV_CTR
Dmitriy Bannov Instructor USTV_CTR
Igor Shitov Controller USTV_CTR  *, USRR_APP(USRR+USNN+USRO+USRK)
Kirill Rudavin Instructor USTV_CTR
Maxim Gerasimov Instructor USTV_CTR
Alexandr Mishin Student 2 USTR_R_APP*, USTR_GND
Andrey Shestakov Senior Student USTR_R_APP
Andrey Usyaev Student 2 USTR_R_APP*, USTR_GND
Daniil Grachev Student 2 USRR_APP(USRR+USNN+USRK+USRO) , USTR_GND
Daniil Omelchenko Student 2 USRR_TWR, USTR_TWR!!!
Dima Platonov Student 2 USRR_APP(USRR+USNN+USRK+USRO) , USRR_TWR, USTR_GND
Elisey Palamarchuk Student USTR_GND
Ilya Zbanchuk Student 2 USTR_TWR!!!, USTR_R_APP*, USTR_GND
Kirill Ardatov Senior Student USDD_TWR, USRR_APP(USRR+USRK+USRO+USNN) , USTR_TWR
Konstantin Norkin Student 2 USTR_R_APP*, USTR_TWR
Nika Avdalov Student 2 USTR_TWR
Nikolay Shvaychenko Student USTR_GND, USTR_TWR*
Sergey Tayshin Student 2 USTR_GND
Vsevolod Skryabin Student 2 USRR_APP(USRR+USRO+USRK+USNN) , USRR_TWR, USTR_TWR
Yan Sheyfer Senior Student USNN_R_APP, USNN_TWR

Аэропорты РПИ

ICAO Город Название Погода
USHQ Белоярский Белоярский
USHB Берёзово Берёзово
USRK Когалым Когалым
USMM Надым Надым
USNN Нижневартовск Нижневартовск USNN 240830Z 30004MPS CAVOK M03/M14 Q1031 R03/0///65 NOSIG RMK QFE769
USMU Новый Уренгой Новый Уренгой
USRO Ноябрьск Ноябрьск
USHN Нягань Нягань
USDA Сабетта Сабетта USDA 240830Z 03006MPS 9999 SCT015 M04/M06 Q1039 R22/520156 NOSIG RMK QFE778/1038
USDD Салехард Салехард
USHS Советский Советский
USRR Сургут Сургут USRR 240830Z 35004MPS 320V030 CAVOK M07/M15 Q1034 R25/CLRD60 NOSIG RMK QFE770
USTR Тюмень Тюмень USTR 240830Z 07006MPS 020V100 CAVOK 03/M10 Q1029 R12/090065 R03/090065 NOSIG
USHU Урай Урай
USHH Ханты-Мансийск Ханты-Мансийск USHH 240830Z 04004MPS 010V080 CAVOK M05/M14 Q1035 R06/010060 NOSIG
USDB Бованенково Бованенково
USHI Игрим Игрим
USDP Красноселькуп Красноселькуп
USDK Мыс Каменный Мыс Каменный
USDS Тарко-Сале Тарко-Сале
USTJ Тобольск Тобольск
USDO Толька Толька
USMQ Ямбург Ямбург